Time;durP1;ratioP1;P1;durP2;ratioP2;P2;SDS_P1;SDS_P2;PMS_P1;PMS_P2;Temp;Humidity;BMP_temperature;BMP_pressure;BME280_temperature;BME280_humidity;BME280_pressure;Samples;Min_cycle;Max_cycle;Signal;HPM_P1;HPM_P2
2021/06/20 00:00:41;;;;;;;9.05;6.13;;;19.00;99.90;;;;;;5044445;28;20022;-70
2021/06/20 00:03:08;;;;;;;13.77;6.97;;;19.10;99.90;;;;;;5046030;28;21073;-72
2021/06/20 00:05:42;;;;;;;14.98;7.75;;;19.00;99.90;;;;;;5045576;28;20085;-72
2021/06/20 00:08:08;;;;;;;17.65;7.78;;;19.00;99.90;;;;;;5045562;28;20032;-69
2021/06/20 00:10:36;;;;;;;13.68;6.78;;;19.00;99.90;;;;;;5046045;28;20100;-71
2021/06/20 00:13:03;;;;;;;12.55;5.97;;;19.00;99.90;;;;;;5044924;28;20026;-71
2021/06/20 00:15:30;;;;;;;12.10;6.53;;;19.00;99.90;;;;;;5061148;28;20057;-71
2021/06/20 00:17:56;;;;;;;11.13;6.90;;;19.00;99.90;;;;;;5045693;28;20021;-71
2021/06/20 00:20:24;;;;;;;13.00;7.32;;;19.00;99.90;;;;;;5045638;28;20022;-73
2021/06/20 00:22:50;;;;;;;19.33;7.10;;;18.90;99.90;;;;;;5045580;28;20040;-71
2021/06/20 00:25:16;;;;;;;13.60;6.38;;;18.90;99.90;;;;;;5045687;28;20033;-70
2021/06/20 00:27:43;;;;;;;16.17;7.97;;;18.90;99.90;;;;;;5045366;28;20036;-71
2021/06/20 00:30:11;;;;;;;11.95;7.68;;;18.80;99.90;;;;;;5046042;28;20033;-69
2021/06/20 00:32:37;;;;;;;14.88;7.85;;;18.80;99.90;;;;;;5045011;28;20029;-72
2021/06/20 00:35:04;;;;;;;16.00;7.50;;;18.80;99.90;;;;;;5045014;28;20045;-71
2021/06/20 00:37:30;;;;;;;11.90;7.18;;;18.80;99.90;;;;;;5044902;28;20085;-71
2021/06/20 00:39:56;;;;;;;17.50;8.57;;;18.80;99.90;;;;;;5060654;28;20041;-72
2021/06/20 00:42:21;;;;;;;15.93;7.97;;;18.80;99.90;;;;;;5045285;28;20063;-72
2021/06/20 00:44:49;;;;;;;17.02;6.75;;;18.80;99.90;;;;;;5045141;28;20025;-72
2021/06/20 00:47:19;;;;;;;12.30;7.25;;;18.80;99.90;;;;;;5045525;28;20473;-71
2021/06/20 00:49:46;;;;;;;29.25;8.43;;;18.80;99.90;;;;;;5044202;28;20058;-72
2021/06/20 00:52:13;;;;;;;11.40;7.07;;;18.80;99.90;;;;;;5044647;28;20029;-71
2021/06/20 00:54:46;;;;;;;17.05;9.13;;;18.80;99.90;;;;;;5045285;28;20055;-71
2021/06/20 00:57:17;;;;;;;17.48;7.80;;;18.80;99.90;;;;;;5044932;28;20120;-70
2021/06/20 00:59:44;;;;;;;14.55;8.18;;;18.90;99.90;;;;;;5060618;28;20178;-72
2021/06/20 01:02:12;;;;;;;17.77;9.05;;;18.90;99.90;;;;;;5043743;28;20048;-73
2021/06/20 01:04:39;;;;;;;17.67;8.77;;;18.80;99.90;;;;;;5044558;28;20037;-70
2021/06/20 01:07:05;;;;;;;15.85;6.78;;;18.90;99.90;;;;;;5044995;28;20040;-71
2021/06/20 01:09:30;;;;;;;12.15;7.53;;;18.80;99.90;;;;;;5058462;28;20072;-71
2021/06/20 01:11:56;;;;;;;17.98;7.85;;;18.80;99.90;;;;;;5056535;28;20047;-70
2021/06/20 01:14:22;;;;;;;18.40;9.32;;;18.90;99.90;;;;;;5044749;28;20073;-72
2021/06/20 01:16:53;;;;;;;18.08;8.25;;;18.80;99.90;;;;;;5044133;28;20025;-71
2021/06/20 01:19:19;;;;;;;18.08;7.82;;;18.80;99.90;;;;;;5063087;28;20100;-73
2021/06/20 01:21:47;;;;;;;15.48;8.15;;;18.90;99.90;;;;;;5064737;28;20029;-73
2021/06/20 01:24:13;;;;;;;14.55;8.48;;;18.90;99.90;;;;;;5061639;28;20029;-71
2021/06/20 01:26:39;;;;;;;16.50;8.95;;;18.90;99.90;;;;;;5062488;28;20506;-71
2021/06/20 01:29:12;;;;;;;13.18;7.07;;;18.90;99.90;;;;;;5061224;28;20393;-70
2021/06/20 01:31:37;;;;;;;11.27;7.07;;;18.90;99.90;;;;;;5062991;28;20086;-71
2021/06/20 01:34:05;;;;;;;14.85;7.55;;;18.90;99.90;;;;;;5062700;28;20025;-72
2021/06/20 01:36:32;;;;;;;14.07;8.88;;;18.90;99.90;;;;;;5062416;28;20036;-72
2021/06/20 01:38:58;;;;;;;18.25;9.13;;;18.90;99.90;;;;;;5061065;28;20060;-71
2021/06/20 01:41:24;;;;;;;16.92;8.88;;;18.90;99.90;;;;;;5062467;28;20037;-71
2021/06/20 01:43:50;;;;;;;14.98;8.13;;;18.90;99.90;;;;;;5062496;28;20036;-72
2021/06/20 01:46:16;;;;;;;14.85;7.25;;;18.90;99.90;;;;;;5062518;28;20120;-72
2021/06/20 01:48:41;;;;;;;16.50;8.48;;;18.90;99.90;;;;;;5062549;28;20492;-71
2021/06/20 01:51:08;;;;;;;17.92;7.50;;;18.90;99.90;;;;;;5062415;28;20052;-71
2021/06/20 01:53:34;;;;;;;11.80;7.05;;;19.00;99.90;;;;;;5062130;28;20029;-73
2021/06/20 01:56:00;;;;;;;19.58;8.65;;;19.00;99.90;;;;;;5062324;28;20512;-70
2021/06/20 01:58:26;;;;;;;15.65;8.15;;;19.00;99.90;;;;;;5062242;28;20025;-71
2021/06/20 02:00:53;;;;;;;13.98;8.77;;;19.00;99.90;;;;;;5061964;28;20037;-73
2021/06/20 02:03:25;;;;;;;17.42;9.43;;;18.90;99.90;;;;;;5062519;28;20165;-71
2021/06/20 02:05:52;;;;;;;17.20;8.38;;;19.00;99.90;;;;;;5062102;28;20489;-71
2021/06/20 02:08:19;;;;;;;13.73;8.25;;;19.00;99.90;;;;;;5062211;28;20032;-72
2021/06/20 02:10:49;;;;;;;17.13;8.27;;;19.00;99.90;;;;;;5062737;28;20017;-70
2021/06/20 02:13:16;;;;;;;15.40;8.43;;;19.10;99.90;;;;;;5062613;28;20073;-71
2021/06/20 02:15:42;;;;;;;12.75;7.57;;;19.00;99.90;;;;;;5060905;28;20122;-70
2021/06/20 02:18:07;;;;;;;17.17;8.95;;;19.10;99.90;;;;;;5063684;28;20636;-71
2021/06/20 02:20:33;;;;;;;15.43;8.73;;;19.10;99.90;;;;;;5066078;28;20036;-69
2021/06/20 02:22:59;;;;;;;16.20;8.63;;;19.10;99.90;;;;;;5066543;28;20040;-69
2021/06/20 02:25:25;;;;;;;15.82;8.20;;;19.10;99.90;;;;;;5065964;28;20036;-69
2021/06/20 02:27:53;;;;;;;13.43;9.60;;;19.00;99.90;;;;;;5066390;28;20044;-69
2021/06/20 02:30:20;;;;;;;13.88;8.43;;;19.10;99.90;;;;;;5066350;28;20066;-68
2021/06/20 02:32:48;;;;;;;27.45;9.38;;;19.10;99.90;;;;;;5065913;28;20017;-70
2021/06/20 02:35:14;;;;;;;50.97;10.43;;;19.10;99.90;;;;;;5065902;28;20029;-69
2021/06/20 02:37:41;;;;;;;16.75;8.18;;;19.10;99.90;;;;;;5065646;28;20433;-68
2021/06/20 02:40:09;;;;;;;17.10;10.13;;;19.20;99.90;;;;;;5065112;28;20021;-69
2021/06/20 02:42:35;;;;;;;16.00;9.25;;;19.20;99.90;;;;;;5065624;28;20554;-69
2021/06/20 02:45:04;;;;;;;23.50;8.95;;;19.10;99.90;;;;;;5064113;28;20032;-71
2021/06/20 02:47:30;;;;;;;15.52;8.40;;;19.10;99.90;;;;;;5066069;28;20085;-72
2021/06/20 02:49:55;;;;;;;24.38;9.80;;;19.10;99.90;;;;;;5065286;28;20075;-73
2021/06/20 02:52:21;;;;;;;18.48;9.02;;;19.10;99.90;;;;;;5065713;28;20024;-73
2021/06/20 02:54:51;;;;;;;26.35;9.82;;;19.10;99.90;;;;;;5064259;28;20029;-74
2021/06/20 02:57:27;;;;;;;15.70;8.07;;;19.10;99.90;;;;;;5064108;28;20035;-75
2021/06/20 02:59:54;;;;;;;19.10;9.57;;;19.10;99.90;;;;;;5063718;28;20037;-76
2021/06/20 03:02:20;;;;;;;16.67;10.27;;;19.10;99.90;;;;;;5065279;28;20037;-74
2021/06/20 03:04:47;;;;;;;22.13;10.70;;;19.10;99.90;;;;;;5065299;28;20093;-72
2021/06/20 03:07:13;;;;;;;18.85;10.32;;;19.00;99.90;;;;;;5065373;28;20032;-69
2021/06/20 03:09:40;;;;;;;18.25;11.15;;;19.10;99.90;;;;;;5064952;28;20041;-72
2021/06/20 03:12:06;;;;;;;20.60;11.07;;;19.10;99.90;;;;;;5065551;28;20036;-71
2021/06/20 03:14:33;;;;;;;24.88;11.63;;;18.90;99.90;;;;;;5064958;28;20017;-73
2021/06/20 03:17:00;;;;;;;19.65;11.52;;;18.90;99.90;;;;;;5064242;28;20029;-72
2021/06/20 03:19:25;;;;;;;21.10;12.38;;;18.80;99.90;;;;;;5065438;28;20025;-71
2021/06/20 03:21:56;;;;;;;23.20;11.70;;;18.80;99.90;;;;;;5064803;28;20075;-69
2021/06/20 03:24:22;;;;;;;19.75;11.80;;;18.70;99.90;;;;;;5064253;28;20029;-70
2021/06/20 03:26:48;;;;;;;24.35;12.40;;;18.70;99.90;;;;;;5065011;28;20040;-70
2021/06/20 03:29:13;;;;;;;22.30;12.55;;;18.70;99.90;;;;;;5064870;28;20123;-68
2021/06/20 03:31:39;;;;;;;21.02;11.68;;;18.60;99.90;;;;;;5064607;28;20025;-70
2021/06/20 03:34:04;;;;;;;25.52;13.10;;;18.60;99.90;;;;;;5065322;28;20025;-69
2021/06/20 03:36:30;;;;;;;22.80;12.82;;;18.60;99.90;;;;;;5063756;28;20496;-71
2021/06/20 03:38:56;;;;;;;23.02;12.43;;;18.60;99.90;;;;;;5064777;28;20025;-72
2021/06/20 03:41:22;;;;;;;26.02;11.75;;;18.60;99.90;;;;;;5065073;28;20058;-72
2021/06/20 03:43:48;;;;;;;24.85;13.52;;;18.60;99.90;;;;;;5063172;28;20032;-71
2021/06/20 03:46:13;;;;;;;27.63;12.65;;;18.60;99.90;;;;;;5064543;28;20029;-73
2021/06/20 03:48:39;;;;;;;29.58;12.10;;;18.50;99.90;;;;;;5064626;28;20025;-73
2021/06/20 03:51:06;;;;;;;26.88;12.77;;;18.60;99.90;;;;;;5064248;28;20045;-76
2021/06/20 03:53:33;;;;;;;23.50;11.48;;;18.60;99.90;;;;;;5064306;28;20037;-77
2021/06/20 03:55:58;;;;;;;28.13;12.57;;;18.60;99.90;;;;;;5062831;28;20028;-75
2021/06/20 03:58:24;;;;;;;24.25;12.80;;;18.60;99.90;;;;;;5064343;28;20021;-72
2021/06/20 04:00:51;;;;;;;22.02;11.82;;;18.70;99.90;;;;;;5064817;28;20021;-73
2021/06/20 04:03:17;;;;;;;23.55;12.30;;;18.70;99.90;;;;;;5064417;28;20072;-72
2021/06/20 04:05:42;;;;;;;22.40;10.13;;;18.70;99.90;;;;;;5062000;28;20476;-74
2021/06/20 04:08:08;;;;;;;17.48;10.00;;;18.70;99.90;;;;;;5064630;28;20121;-73
2021/06/20 04:10:34;;;;;;;17.38;9.77;;;18.70;99.90;;;;;;5064457;28;20092;-72
2021/06/20 04:13:00;;;;;;;14.73;8.60;;;18.70;99.90;;;;;;5063672;28;20036;-74
2021/06/20 04:15:26;;;;;;;21.45;10.80;;;18.70;99.90;;;;;;5064262;28;20081;-71
2021/06/20 04:17:52;;;;;;;19.50;8.55;;;18.70;99.90;;;;;;5064448;28;20032;-74
2021/06/20 04:20:18;;;;;;;20.08;8.82;;;18.70;99.90;;;;;;5062524;28;20045;-72
2021/06/20 04:22:44;;;;;;;15.88;8.02;;;18.70;99.90;;;;;;5064098;28;20032;-72
2021/06/20 04:25:15;;;;;;;12.90;8.02;;;18.80;99.90;;;;;;5063738;28;20147;-68
2021/06/20 04:27:46;;;;;;;14.98;7.82;;;18.70;99.90;;;;;;5063872;28;20079;-72
2021/06/20 04:30:13;;;;;;;10.82;6.00;;;18.80;99.90;;;;;;5063888;28;20063;-71
2021/06/20 04:32:43;;;;;;;17.13;6.75;;;18.70;99.90;;;;;;5063383;28;20448;-69
2021/06/20 04:35:11;;;;;;;9.05;5.40;;;18.70;99.90;;;;;;5063939;28;20036;-72
2021/06/20 04:37:38;;;;;;;8.50;4.75;;;18.80;99.90;;;;;;5063577;28;20025;-72
2021/06/20 04:40:05;;;;;;;6.90;3.67;;;18.80;99.90;;;;;;5060998;28;20029;-71
2021/06/20 04:42:36;;;;;;;8.15;4.07;;;18.80;99.90;;;;;;5063397;28;20074;-73
2021/06/20 04:45:04;;;;;;;11.00;3.80;;;18.90;99.90;;;;;;5063279;28;20025;-74
2021/06/20 04:47:30;;;;;;;4.45;2.50;;;18.80;99.90;;;;;;5063260;28;20025;-69
2021/06/20 04:49:55;;;;;;;15.00;3.42;;;18.90;99.90;;;;;;5063068;28;20068;-71
2021/06/20 04:52:21;;;;;;;5.93;2.80;;;18.90;99.90;;;;;;5063332;28;20040;-70
2021/06/20 04:54:52;;;;;;;4.20;2.38;;;18.90;99.90;;;;;;5063440;28;20179;-71
2021/06/20 04:57:28;;;;;;;11.15;2.40;;;18.90;99.90;;;;;;5063938;28;20022;-74
2021/06/20 04:59:57;;;;;;;7.00;2.80;;;18.90;99.90;;;;;;5063270;28;20027;-74
2021/06/20 05:02:23;;;;;;;5.20;2.92;;;18.90;99.90;;;;;;5062722;28;20471;-71
2021/06/20 05:04:50;;;;;;;6.88;2.35;;;18.90;99.90;;;;;;5061402;28;20033;-74
2021/06/20 05:07:16;;;;;;;5.13;2.38;;;19.00;99.90;;;;;;5063371;28;20021;-69
2021/06/20 05:09:42;;;;;;;4.47;2.13;;;18.90;99.90;;;;;;5045173;28;20053;-69
2021/06/20 05:12:09;;;;;;;7.20;2.13;;;18.90;99.90;;;;;;5057602;28;20048;-69
2021/06/20 05:14:36;;;;;;;4.88;2.35;;;18.90;99.90;;;;;;5060631;28;20033;-72
2021/06/20 05:17:03;;;;;;;2.78;1.58;;;18.90;99.90;;;;;;5043259;28;20033;-70
2021/06/20 05:19:28;;;;;;;4.03;1.75;;;18.90;99.90;;;;;;5043442;28;20030;-71
2021/06/20 05:21:55;;;;;;;7.03;1.67;;;18.90;99.90;;;;;;5042875;28;20079;-72
2021/06/20 05:24:20;;;;;;;1.52;1.27;;;19.00;99.90;;;;;;5043210;28;20542;-72
2021/06/20 05:26:46;;;;;;;3.22;1.65;;;19.10;99.90;;;;;;5042963;28;20025;-71
2021/06/20 05:29:12;;;;;;;2.88;1.85;;;18.90;99.90;;;;;;5043011;28;20029;-71
2021/06/20 05:31:38;;;;;;;5.82;1.73;;;19.00;99.90;;;;;;5043088;28;20108;-69
2021/06/20 05:34:04;;;;;;;8.57;1.90;;;19.10;99.90;;;;;;5042282;28;20040;-70
2021/06/20 05:36:29;;;;;;;2.05;1.20;;;19.10;99.90;;;;;;5042069;28;20025;-70
2021/06/20 05:38:55;;;;;;;10.65;2.17;;;19.10;99.90;;;;;;5042642;28;20037;-70
2021/06/20 05:41:21;;;;;;;1.98;1.00;;;19.20;99.90;;;;;;5043169;28;20077;-71
2021/06/20 05:43:46;;;;;;;4.75;1.27;;;19.20;99.90;;;;;;5041941;28;20735;-74
2021/06/20 05:46:12;;;;;;;1.10;0.98;;;19.10;99.90;;;;;;5042175;28;20036;-72
2021/06/20 05:48:38;;;;;;;6.10;1.52;;;19.10;99.90;;;;;;5042657;28;20033;-71
2021/06/20 05:51:04;;;;;;;3.28;1.15;;;19.20;99.90;;;;;;5041556;28;20497;-73
2021/06/20 05:53:30;;;;;;;1.20;1.10;;;19.20;99.90;;;;;;5042130;28;20041;-69
2021/06/20 05:55:55;;;;;;;3.35;1.17;;;19.20;99.90;;;;;;5041858;28;20028;-75
2021/06/20 05:58:21;;;;;;;2.00;1.15;;;19.30;99.90;;;;;;5042751;28;20068;-71
2021/06/20 06:00:47;;;;;;;2.33;1.40;;;19.30;99.90;;;;;;5042608;28;20025;-73
2021/06/20 06:03:12;;;;;;;3.45;1.77;;;19.30;99.90;;;;;;5042871;28;20091;-71
2021/06/20 06:05:38;;;;;;;1.77;1.25;;;19.40;99.90;;;;;;5042210;28;20049;-74
2021/06/20 06:08:04;;;;;;;1.65;1.35;;;19.40;99.90;;;;;;5045025;28;20120;-74
2021/06/20 06:10:30;;;;;;;2.58;1.15;;;19.50;99.90;;;;;;5052336;28;20091;-74
2021/06/20 06:12:57;;;;;;;7.30;1.17;;;19.40;99.90;;;;;;5049830;28;20041;-75
2021/06/20 06:15:23;;;;;;;3.50;1.85;;;19.50;99.90;;;;;;5054225;28;20070;-75
2021/06/20 06:17:49;;;;;;;2.58;1.30;;;19.50;99.90;;;;;;5062580;28;20029;-78
2021/06/20 06:20:15;;;;;;;2.67;1.35;;;19.60;99.90;;;;;;5062462;28;20032;-75
2021/06/20 06:22:41;;;;;;;4.80;1.55;;;19.60;99.90;;;;;;5062548;28;20017;-75
2021/06/20 06:25:08;;;;;;;1.77;0.95;;;19.60;99.90;;;;;;5062138;28;20033;-75
2021/06/20 06:27:33;;;;;;;1.67;0.88;;;19.70;99.90;;;;;;5062211;28;20044;-73
2021/06/20 06:29:59;;;;;;;6.88;1.63;;;19.70;99.90;;;;;;5061028;28;20029;-75
2021/06/20 06:32:25;;;;;;;3.17;1.13;;;19.70;99.90;;;;;;5053068;28;20709;-74
2021/06/20 06:34:51;;;;;;;6.05;1.50;;;19.70;99.90;;;;;;5038819;28;20033;-76
2021/06/20 06:37:17;;;;;;;2.58;1.70;;;19.80;99.90;;;;;;5021197;28;20025;-75
2021/06/20 06:39:43;;;;;;;3.78;1.20;;;19.90;99.90;;;;;;5037300;28;20033;-75
2021/06/20 06:42:09;;;;;;;2.10;1.10;;;19.90;99.90;;;;;;5046211;28;20033;-72
2021/06/20 06:44:35;;;;;;;4.88;1.55;;;19.90;99.90;;;;;;5045517;28;20030;-72
2021/06/20 06:47:01;;;;;;;2.88;1.35;;;20.00;99.90;;;;;;5041815;28;20079;-75
2021/06/20 06:49:27;;;;;;;2.25;1.48;;;20.10;99.90;;;;;;5041858;28;20025;-74
2021/06/20 06:51:52;;;;;;;0.98;0.88;;;20.10;99.90;;;;;;5056976;28;20401;-77
2021/06/20 06:54:18;;;;;;;11.52;1.58;;;20.20;99.90;;;;;;5041246;28;20030;-75
2021/06/20 06:56:45;;;;;;;2.60;1.38;;;20.20;99.90;;;;;;5042515;28;20724;-75
2021/06/20 06:59:12;;;;;;;1.67;1.10;;;20.20;99.90;;;;;;5041389;28;20052;-71
2021/06/20 07:01:37;;;;;;;4.60;1.73;;;20.30;99.90;;;;;;5041548;28;20034;-72
2021/06/20 07:04:03;;;;;;;6.32;1.30;;;20.40;99.90;;;;;;5049034;28;20030;-74
2021/06/20 07:06:29;;;;;;;3.03;1.27;;;20.40;99.90;;;;;;5044991;28;20033;-72
2021/06/20 07:08:54;;;;;;;6.30;2.05;;;20.50;99.90;;;;;;5060876;28;20515;-73
2021/06/20 07:11:21;;;;;;;2.88;1.58;;;20.50;99.90;;;;;;5044499;28;20116;-74
2021/06/20 07:13:47;;;;;;;4.85;1.83;;;20.60;99.90;;;;;;5045375;28;20051;-74
2021/06/20 07:16:13;;;;;;;2.35;1.50;;;20.60;99.90;;;;;;5044246;28;20120;-72
2021/06/20 07:18:39;;;;;;;4.80;1.67;;;20.60;99.90;;;;;;5060957;28;20033;-74
2021/06/20 07:21:05;;;;;;;8.85;2.55;;;20.70;99.90;;;;;;5052823;28;20091;-74
2021/06/20 07:23:31;;;;;;;11.25;1.10;;;20.80;99.90;;;;;;5065147;28;20107;-74
2021/06/20 07:25:57;;;;;;;10.45;1.80;;;20.80;99.90;;;;;;5065182;28;20025;-74
2021/06/20 07:28:23;;;;;;;5.63;1.95;;;20.90;99.90;;;;;;5065057;28;20028;-72
2021/06/20 07:30:49;;;;;;;3.33;1.77;;;21.10;99.90;;;;;;5065454;28;20044;-73
2021/06/20 07:33:22;;;;;;;4.90;2.22;;;21.10;99.90;;;;;;5064959;28;20049;-73
2021/06/20 07:35:51;;;;;;;4.15;2.25;;;21.10;99.90;;;;;;5064484;28;20048;-72
2021/06/20 07:38:18;;;;;;;3.33;2.13;;;21.10;99.90;;;;;;5063328;28;20034;-73
2021/06/20 07:40:44;;;;;;;7.65;2.90;;;21.10;99.90;;;;;;5064938;28;20608;-75
2021/06/20 07:43:09;;;;;;;4.00;2.25;;;21.00;99.90;;;;;;5064654;28;20103;-71
2021/06/20 07:45:36;;;;;;;5.35;3.13;;;21.00;99.90;;;;;;5064597;28;20417;-73
2021/06/20 07:48:03;;;;;;;6.82;3.17;;;20.90;99.90;;;;;;5063731;28;20025;-70
2021/06/20 07:50:28;;;;;;;3.40;2.53;;;20.90;99.90;;;;;;5064223;28;20049;-76
2021/06/20 07:52:54;;;;;;;7.72;2.83;;;20.80;99.90;;;;;;5063129;28;20076;-71
2021/06/20 07:55:19;;;;;;;9.70;4.30;;;20.80;99.90;;;;;;5064766;28;20025;-71
2021/06/20 07:57:45;;;;;;;7.45;3.55;;;20.80;99.90;;;;;;5064998;28;20405;-73
2021/06/20 08:00:11;;;;;;;7.95;4.03;;;20.80;99.90;;;;;;5062985;28;20106;-72
2021/06/20 08:02:37;;;;;;;4.93;3.67;;;20.80;99.90;;;;;;5064315;28;20029;-71
2021/06/20 08:05:07;;;;;;;12.27;4.10;;;20.80;99.90;;;;;;5062739;28;20104;-74
2021/06/20 08:07:33;;;;;;;9.95;4.13;;;20.80;99.90;;;;;;5054275;28;20061;-73
2021/06/20 08:09:59;;;;;;;8.55;4.63;;;20.90;99.90;;;;;;5043306;28;20025;-73
2021/06/20 08:12:26;;;;;;;6.00;3.78;;;21.00;99.90;;;;;;5043562;28;20052;-76
2021/06/20 08:14:52;;;;;;;8.82;4.68;;;21.10;99.90;;;;;;5044299;28;20075;-73
2021/06/20 08:17:19;;;;;;;4.15;2.85;;;21.10;99.90;;;;;;5043482;28;20021;-78
2021/06/20 08:19:46;;;;;;;5.63;3.83;;;21.30;99.90;;;;;;5043479;28;20056;-75
2021/06/20 08:22:12;;;;;;;8.27;4.72;;;21.40;99.90;;;;;;5043490;28;20824;-74
2021/06/20 08:24:38;;;;;;;10.50;4.50;;;21.50;99.90;;;;;;5043727;28;20032;-71
2021/06/20 08:27:05;;;;;;;7.95;4.43;;;21.50;99.90;;;;;;5043706;28;20026;-75
2021/06/20 08:29:31;;;;;;;9.70;4.05;;;21.60;99.90;;;;;;5043726;28;20018;-76
2021/06/20 08:31:57;;;;;;;11.98;4.35;;;21.70;99.90;;;;;;5043355;28;20034;-78
2021/06/20 08:34:23;;;;;;;7.60;4.25;;;21.80;99.90;;;;;;5043278;28;20033;-74
2021/06/20 08:36:49;;;;;;;5.45;3.75;;;21.80;99.90;;;;;;5043730;28;20021;-73
2021/06/20 08:39:15;;;;;;;8.50;4.70;;;21.90;99.90;;;;;;5043913;28;20033;-76
2021/06/20 08:41:43;;;;;;;5.97;3.50;;;22.00;99.90;;;;;;5041918;28;20037;-71
2021/06/20 08:44:29;;;;;;;7.80;4.50;;;22.10;99.90;;;;;;5043565;28;20471;-76
2021/06/20 08:46:57;;;;;;;10.32;5.13;;;22.30;99.90;;;;;;5042178;28;20037;-73
2021/06/20 08:49:24;;;;;;;8.45;4.30;;;22.40;99.90;;;;;;5042679;28;20036;-76
2021/06/20 08:51:52;;;;;;;8.82;4.63;;;22.60;99.90;;;;;;5042281;28;20406;-77
2021/06/20 08:54:18;;;;;;;8.05;4.57;;;22.80;99.90;;;;;;5058236;28;20030;-76
2021/06/20 08:56:44;;;;;;;5.68;3.70;;;22.90;99.90;;;;;;5058517;28;20705;-77
2021/06/20 08:59:14;;;;;;;7.90;4.18;;;23.00;99.90;;;;;;5042661;28;20627;-76
2021/06/20 09:01:39;;;;;;;6.38;4.20;;;23.00;99.90;;;;;;5042960;28;20085;-76
2021/06/20 09:04:05;;;;;;;6.38;4.03;;;23.10;99.90;;;;;;5058368;28;20055;-79
2021/06/20 09:06:31;;;;;;;6.78;4.32;;;23.10;99.90;;;;;;5058053;28;20030;-74
2021/06/20 09:09:00;;;;;;;9.50;3.78;;;23.10;99.90;;;;;;5042811;28;20025;-76
2021/06/20 09:11:34;;;;;;;8.05;3.97;;;22.90;99.90;;;;;;5057581;28;20037;-74
2021/06/20 09:14:06;;;;;;;;;;;22.80;99.90;;;;;;5043267;28;20041;-74
2021/06/20 09:16:32;;;;;;;6.05;3.92;;;22.70;99.90;;;;;;5043427;28;19936;-75
2021/06/20 09:18:59;;;;;;;10.63;5.32;;;22.60;99.90;;;;;;5042322;28;20052;-72
2021/06/20 09:21:25;;;;;;;8.40;5.07;;;22.50;99.90;;;;;;5042425;28;20731;-74
2021/06/20 09:24:00;;;;;;;7.55;4.45;;;22.50;99.90;;;;;;5042375;28;20359;-76
2021/06/20 09:26:56;;;;;;;6.20;3.63;;;22.40;99.90;;;;;;5040850;28;20029;-76
2021/06/20 09:29:31;;;;;;;8.60;4.57;;;22.60;99.90;;;;;;5042440;28;20471;-75
2021/06/20 09:31:59;;;;;;;18.10;4.82;;;22.90;99.90;;;;;;5042861;28;20045;-75
2021/06/20 09:34:24;;;;;;;12.38;4.47;;;22.90;99.90;;;;;;5042629;28;20060;-76
2021/06/20 09:37:01;;;;;;;6.82;4.88;;;23.00;99.90;;;;;;5043397;28;20029;-77
2021/06/20 09:39:28;;;;;;;9.48;5.18;;;23.10;99.90;;;;;;5045590;28;20036;-77
2021/06/20 09:42:03;;;;;;;12.65;5.38;;;23.10;99.90;;;;;;5053467;28;20029;-73
2021/06/20 09:44:52;;;;;;;11.25;5.60;;;23.00;99.90;;;;;;5051669;28;20026;-73
2021/06/20 09:47:22;;;;;;;7.82;4.90;;;23.10;99.90;;;;;;5042488;28;20054;-73
2021/06/20 09:49:49;;;;;;;7.78;3.53;;;23.30;99.90;;;;;;5047220;28;20117;-78
2021/06/20 09:52:33;;;;;;;10.55;4.53;;;23.50;99.90;;;;;;5061852;28;20064;-74
2021/06/20 09:55:09;;;;;;;9.05;4.45;;;23.70;99.90;;;;;;5049081;28;20021;-75
2021/06/20 09:57:40;;;;;;;9.05;4.72;;;23.80;99.90;;;;;;5040836;28;20025;-78
2021/06/20 10:00:07;;;;;;;13.20;4.72;;;24.00;99.90;;;;;;5042002;28;20544;-79
2021/06/20 10:02:39;;;;;;;9.48;4.18;;;24.10;99.90;;;;;;5042079;28;20029;-76
2021/06/20 10:05:07;;;;;;;10.00;4.72;;;24.30;99.90;;;;;;5057933;28;20025;-74
2021/06/20 10:07:33;;;;;;;10.80;4.57;;;24.60;99.90;;;;;;5042339;28;20032;-76
2021/06/20 10:10:00;;;;;;;7.13;4.03;;;24.60;99.90;;;;;;5040988;28;20049;-74
2021/06/20 10:12:27;;;;;;;8.88;4.78;;;24.70;99.90;;;;;;5042706;28;20033;-75
2021/06/20 10:14:56;;;;;;;5.40;4.13;;;24.70;99.90;;;;;;5057805;28;20033;-71
2021/06/20 10:17:38;;;;;;;7.32;4.28;;;24.90;99.90;;;;;;5042002;28;20017;-73
2021/06/20 10:20:08;;;;;;;8.35;4.15;;;25.00;99.90;;;;;;5045309;28;20060;-75
2021/06/20 10:22:45;;;;;;;8.25;4.05;;;25.20;99.90;;;;;;5056451;28;20096;-71
2021/06/20 10:25:30;;;;;;;8.70;4.32;;;25.30;99.90;;;;;;5046771;28;20037;-75
2021/06/20 10:28:03;;;;;;;8.32;4.30;;;25.50;99.90;;;;;;5054625;28;20029;-75
2021/06/20 10:30:33;;;;;;;8.40;4.80;;;25.50;99.90;;;;;;5036775;28;20037;-74
2021/06/20 10:33:12;;;;;;;5.88;3.38;;;25.40;99.90;;;;;;5043803;28;20040;-71
2021/06/20 10:35:41;;;;;;;11.60;4.82;;;25.20;99.90;;;;;;5048408;28;20033;-72
2021/06/20 10:38:08;;;;;;;9.20;4.43;;;25.00;99.90;;;;;;5047328;28;20034;-75
2021/06/20 10:40:42;;;;;;;8.52;5.50;;;24.80;99.90;;;;;;5059521;28;20111;-71
2021/06/20 10:43:20;;;;;;;6.78;4.25;;;24.70;99.90;;;;;;5065348;28;20432;-76
2021/06/20 10:45:47;;;;;;;14.68;4.50;;;24.60;99.90;;;;;;5065431;28;20134;-72
2021/06/20 10:48:19;;;;;;;5.00;3.33;;;24.50;99.90;;;;;;5065890;28;20036;-73
2021/06/20 10:50:57;;;;;;;10.30;4.00;;;24.60;99.90;;;;;;5065402;28;20051;-73
2021/06/20 10:53:26;;;;;;;6.90;4.15;;;24.50;99.90;;;;;;5046872;28;20048;-77
2021/06/20 10:55:55;;;;;;;7.15;3.45;;;24.50;99.90;;;;;;5065458;28;20029;-74
2021/06/20 10:58:29;;;;;;;3.33;2.67;;;24.60;99.90;;;;;;5065178;28;20033;-73
2021/06/20 11:01:13;;;;;;;4.75;2.80;;;25.00;99.90;;;;;;5065274;28;20032;-75
2021/06/20 11:03:40;;;;;;;6.75;4.05;;;25.30;99.90;;;;;;5065395;28;20062;-70
2021/06/20 11:06:09;;;;;;;7.95;4.07;;;25.50;99.90;;;;;;5051955;28;20029;-75
2021/06/20 11:08:36;;;;;;;6.70;4.68;;;25.40;99.90;;;;;;5044960;28;20025;-70
2021/06/20 11:11:21;;;;;;;6.13;3.72;;;25.20;99.90;;;;;;5043546;28;20052;-75
2021/06/20 11:14:09;;;;;;;5.90;3.58;;;25.00;99.90;;;;;;5044050;28;20036;-72
2021/06/20 11:16:39;;;;;;;6.05;4.05;;;24.90;99.90;;;;;;5043756;28;20067;-73
2021/06/20 11:19:16;;;;;;;6.88;4.05;;;24.80;99.90;;;;;;5046492;28;20025;-72
2021/06/20 11:21:52;;;;;;;4.82;3.45;;;24.90;99.90;;;;;;5044992;28;20033;-73
2021/06/20 11:24:21;;;;;;;13.00;4.10;;;25.00;99.90;;;;;;5043796;28;20033;-72
2021/06/20 11:26:56;;;;;;;6.35;4.07;;;25.00;99.90;;;;;;5047245;28;20025;-73
2021/06/20 11:29:22;;;;;;;10.13;4.57;;;25.20;99.90;;;;;;5052758;28;20037;-72
2021/06/20 11:32:01;;;;;;;6.55;4.53;;;25.20;99.90;;;;;;5050489;28;20061;-75
2021/06/20 11:34:27;;;;;;;9.35;4.80;;;25.20;99.90;;;;;;5045691;28;20025;-78
2021/06/20 11:36:52;;;;;;;10.07;4.35;;;25.20;99.90;;;;;;5047026;28;20017;-73
2021/06/20 11:39:19;;;;;;;5.38;3.38;;;25.60;99.90;;;;;;5053102;28;20064;-75
2021/06/20 11:41:47;;;;;;;9.60;3.10;;;26.10;99.90;;;;;;5061918;28;20041;-75
2021/06/20 11:44:15;;;;;;;4.65;2.22;;;26.50;99.90;;;;;;5065919;28;20112;-75
2021/06/20 11:46:43;;;;;;;2.75;2.00;;;26.90;99.90;;;;;;5064492;28;20025;-74
2021/06/20 11:49:12;;;;;;;5.97;3.30;;;27.10;99.90;;;;;;5045880;28;20037;-75
2021/06/20 11:51:42;;;;;;;5.40;2.50;;;27.10;99.90;;;;;;5045348;28;20161;-73
2021/06/20 11:54:12;;;;;;;4.68;2.70;;;26.60;99.90;;;;;;5045909;28;20084;-73
2021/06/20 11:56:39;;;;;;;6.68;3.08;;;26.40;99.90;;;;;;5045781;28;20029;-76
2021/06/20 11:59:06;;;;;;;5.90;2.90;;;26.40;99.90;;;;;;5044003;28;20025;-72
2021/06/20 12:01:44;;;;;;;4.53;2.70;;;26.60;99.90;;;;;;5044895;28;20025;-76
2021/06/20 12:04:13;;;;;;;7.72;2.72;;;27.20;99.90;;;;;;5025037;28;20037;-74
2021/06/20 12:06:39;;;;;;;4.90;2.58;;;27.70;99.90;;;;;;5020039;28;20857;-72
2021/06/20 12:09:08;;;;;;;2.17;1.42;;;28.10;99.90;;;;;;5019205;28;20026;-74
2021/06/20 12:11:35;;;;;;;2.03;1.50;;;28.30;99.90;;;;;;5024363;28;20049;-72
2021/06/20 12:14:03;;;;;;;3.80;2.17;;;28.10;99.90;;;;;;5023825;28;20025;-75
2021/06/20 12:16:28;;;;;;;3.80;2.30;;;27.90;99.90;;;;;;5040363;28;20036;-74
2021/06/20 12:18:57;;;;;;;4.13;2.47;;;27.80;99.90;;;;;;5025282;28;20090;-76
2021/06/20 12:21:24;;;;;;;5.18;2.90;;;27.50;99.90;;;;;;5040564;28;20057;-73
2021/06/20 12:23:59;;;;;;;5.25;2.95;;;27.50;99.90;;;;;;5023659;28;20034;-76
2021/06/20 12:26:30;;;;;;;2.92;2.38;;;27.70;99.90;;;;;;5025212;28;20041;-74
2021/06/20 12:28:57;;;;;;;4.03;2.17;;;28.00;99.90;;;;;;5023280;28;20040;-75
2021/06/20 12:31:24;;;;;;;6.00;3.05;;;28.40;99.90;;;;;;5022963;28;20022;-77
2021/06/20 12:34:01;;;;;;;4.25;2.85;;;28.60;99.90;;;;;;5023034;28;20065;-73
2021/06/20 12:36:31;;;;;;;6.70;2.83;;;28.70;99.90;;;;;;5023639;28;20498;-70
2021/06/20 12:39:01;;;;;;;4.93;2.40;;;28.80;99.90;;;;;;5023232;28;20033;-77
2021/06/20 12:41:29;;;;;;;4.95;3.33;;;28.90;99.90;;;;;;5025211;28;20085;-76
2021/06/20 12:44:03;;;;;;;5.22;2.58;;;29.00;99.90;;;;;;5023983;28;20060;-78